Monroe, NC

2:43 PM EDT en Agosto 27, 2016 (GMT -0400)
Crismark | | Change Station

Alt 686 ft 35.12 °N, 80.62 °W | Updated 1 minute ago

Mostly Cloudy
Muy nublado
98.0 ° F
Sensación térmica 93 ° F
N
0.0
Viento Variable Viento desde Sur

Hoy
Alta -- | Baja -- ° F
--% Posibilidad de precipitaciones
Ayer
Alta -- | Baja -- ° F
Precip. -- pul
Presión 30.10 pul
Visibilidad 10.0 Millas
Nubes Muy nublado 5000 ft
Índice de calor 93 ° F
Punto de rocío No disponible.
Humedad No disponible.
Precipitaciones 0.01 pul
Espesor de la nieve No disponible.
6:51 AM 7:55 PM
Creciente menguante, 22% visible
METAR KEQY 271753Z AUTO VRB04KT 10SM BKN050 33/20 A3011 RMK AO2 SLP191 T03330200 10356 20233 58007
Presión 30.10 pul
Visibilidad 10.0 Millas
Nubes Muy nublado 5000 ft
Índice de calor 93 ° F
Punto de rocío No disponible.
Humedad No disponible.
Precipitaciones 0.01 pul
Espesor de la nieve No disponible.
6:51 AM 7:55 PM
Creciente menguante, 22% visible
METAR KEQY 271753Z AUTO VRB04KT 10SM BKN050 33/20 A3011 RMK AO2 SLP191 T03330200 10356 20233 58007

10-Day Weather Forecast

Almanac

Astronomía

Aug. 27, 2016 Salida Puesta
Hora real
Crepúsculo civil
Crepúsculo náutico
Crepúsculo astronómico
Luna
Horas de luz
Horas de luz
Tomorrow will be .
, % of the Moon is Illuminated

Extremos de hoy

Máximos del estado Bajos del estado

Community

WunderPhotos

Upload Photos

1,935,399 ¡fotos cargadas!

WunderBlog® & News

Nearby

Calidad del aire

  Calidad del aire Índice AQ Contaminante
Not available.

Grosos de nieve

Estación Profundido Altura

Actividad de terremotos

Ciudad Distance Mag. Tiempo y dato
Magnitud mínima muestra es 2,5.

Temperaturas de aguas costeras

Lugar Temperatura

Stations

Estaciones meteorológicas cercanas

Ubicación de la estación Temp. Vientos helados Punto de rocío Humedad Viento Precip. Alt Actualizado Tipo
                   

Watches & Warnings

There are currently no watches in effect.